createdAt,value
2019-01-14T00:01:23.474Z,5.01
2019-01-14T00:06:32.438Z,4.63
2019-01-14T00:11:41.422Z,5.15
2019-01-14T00:16:50.343Z,5.01
2019-01-14T00:21:59.346Z,5.35
2019-01-14T00:27:06.810Z,5.40
2019-01-14T00:32:15.855Z,4.95
2019-01-14T00:37:24.802Z,4.53
2019-01-14T00:42:33.802Z,5.59
2019-01-14T00:47:42.768Z,4.99
2019-01-14T00:52:51.754Z,5.24
2019-01-14T00:58:00.687Z,4.52
2019-01-14T01:03:09.662Z,5.09
2019-01-14T01:08:18.622Z,4.73
2019-01-14T01:13:27.579Z,4.66
2019-01-14T01:18:36.580Z,5.10
2019-01-14T01:23:45.515Z,5.27
2019-01-14T01:28:54.547Z,5.14
2019-01-14T01:34:03.478Z,4.75
2019-01-14T01:39:12.449Z,4.74
2019-01-14T01:44:21.368Z,5.38
2019-01-14T01:49:30.320Z,4.31
2019-01-14T01:54:39.294Z,4.98
2019-01-14T01:59:48.242Z,4.70
2019-01-14T02:04:57.190Z,5.16
2019-01-14T02:10:06.146Z,4.71
2019-01-14T02:15:15.119Z,5.10
2019-01-14T02:20:24.049Z,5.02
2019-01-14T02:25:32.998Z,4.99
2019-01-14T02:30:41.999Z,3.84
2019-01-14T02:35:50.978Z,3.99
2019-01-14T02:40:59.941Z,3.99
2019-01-14T02:46:08.882Z,4.18
2019-01-14T02:51:17.884Z,4.39
2019-01-14T02:56:26.820Z,4.23
2019-01-14T03:01:35.778Z,3.69
2019-01-14T03:06:44.736Z,4.42
2019-01-14T03:11:53.699Z,4.79
2019-01-14T03:17:02.626Z,4.65
2019-01-14T03:22:11.606Z,4.68
2019-01-14T03:27:20.546Z,4.46
2019-01-14T03:32:29.515Z,4.45
2019-01-14T03:37:38.453Z,4.36
2019-01-14T03:42:47.416Z,4.42
2019-01-14T03:47:56.362Z,4.30
2019-01-14T03:53:05.318Z,4.58
2019-01-14T03:58:14.262Z,4.48
2019-01-14T04:03:23.310Z,3.24
2019-01-14T04:08:32.261Z,2.55
2019-01-14T04:13:41.255Z,2.64
2019-01-14T04:18:50.201Z,3.18
2019-01-14T04:23:59.182Z,3.28
2019-01-14T04:29:08.119Z,2.98
2019-01-14T04:34:17.155Z,2.56
2019-01-14T04:39:26.083Z,1.56
2019-01-14T04:44:35.062Z,2.08
2019-01-14T04:49:44.007Z,2.02
2019-01-14T04:54:53.042Z,2.16
2019-01-14T05:00:01.985Z,1.90
2019-01-14T05:05:11.011Z,2.04
2019-01-14T05:10:19.940Z,1.70
2019-01-14T05:15:28.887Z,1.78
2019-01-14T05:20:37.826Z,1.93
2019-01-14T05:25:46.779Z,2.35
2019-01-14T05:30:55.710Z,2.58
2019-01-14T05:36:04.699Z,2.25
2019-01-14T05:41:13.622Z,2.62
2019-01-14T05:46:22.678Z,2.83
2019-01-14T05:51:31.622Z,2.91
2019-01-14T05:56:40.635Z,2.68
2019-01-14T06:01:49.558Z,2.94
2019-01-14T06:06:58.506Z,3.04
2019-01-14T06:12:07.434Z,2.99
2019-01-14T06:17:16.423Z,3.96
2019-01-14T06:22:25.386Z,3.23
2019-01-14T06:27:34.422Z,3.43
2019-01-14T06:32:43.354Z,4.01
2019-01-14T06:37:52.751Z,3.57
2019-01-14T06:43:00.798Z,3.97
2019-01-14T06:48:09.810Z,3.67
2019-01-14T06:53:18.754Z,3.32
2019-01-14T06:58:27.811Z,3.49
2019-01-14T07:03:36.734Z,3.36
2019-01-14T07:08:45.719Z,3.37
2019-01-14T07:13:54.638Z,3.26
2019-01-14T07:19:03.807Z,3.10
2019-01-14T07:24:12.760Z,2.81
2019-01-14T07:29:21.774Z,2.53
2019-01-14T07:34:30.725Z,2.62
2019-01-14T07:39:39.671Z,2.71
2019-01-14T07:44:48.615Z,2.68
2019-01-14T07:49:57.636Z,2.72
2019-01-14T07:55:06.574Z,2.86
2019-01-14T08:00:15.562Z,2.43
2019-01-14T08:05:24.482Z,3.17
2019-01-14T08:10:33.527Z,2.77
2019-01-14T08:15:42.484Z,2.79
2019-01-14T08:20:51.441Z,3.51
2019-01-14T08:26:00.394Z,3.12
2019-01-14T08:31:09.354Z,2.93
2019-01-14T08:36:18.296Z,2.88
2019-01-14T08:41:27.246Z,2.89
2019-01-14T08:46:36.210Z,3.13
2019-01-14T08:51:45.223Z,2.82
2019-01-14T08:56:54.159Z,2.73
2019-01-14T09:02:03.175Z,2.60
2019-01-14T09:07:12.109Z,2.13
2019-01-14T09:12:21.118Z,1.23
2019-01-14T09:17:30.055Z,1.58
2019-01-14T09:22:39.115Z,1.94
2019-01-14T09:27:48.092Z,2.19
2019-01-14T09:32:57.107Z,2.29
2019-01-14T09:38:06.068Z,2.57
2019-01-14T09:43:15.038Z,2.40
2019-01-14T09:48:23.967Z,2.29
2019-01-14T09:53:32.974Z,2.39
2019-01-14T09:58:41.930Z,2.28
2019-01-14T10:03:50.975Z,1.99
2019-01-14T10:08:59.922Z,1.95
2019-01-14T10:14:08.934Z,2.14
2019-01-14T10:19:17.878Z,2.01
2019-01-14T10:24:26.930Z,2.50
2019-01-14T10:29:35.874Z,2.04
2019-01-14T10:34:44.951Z,2.29
2019-01-14T10:39:53.890Z,2.40
2019-01-14T10:45:02.900Z,2.61
2019-01-14T10:50:11.807Z,1.88
2019-01-14T10:55:20.774Z,1.18
2019-01-14T11:00:29.706Z,1.52
2019-01-14T11:05:38.678Z,1.59
2019-01-14T11:10:47.621Z,2.01
2019-01-14T11:15:56.639Z,2.18
2019-01-14T11:21:05.590Z,2.18
2019-01-14T11:26:14.760Z,2.36
2019-01-14T11:31:23.706Z,2.78
2019-01-14T11:36:32.767Z,2.11
2019-01-14T11:41:41.728Z,2.00
2019-01-14T11:46:50.773Z,1.80
2019-01-14T11:51:59.691Z,1.46
2019-01-14T11:57:08.722Z,1.35
2019-01-14T12:02:16.214Z,1.22
2019-01-14T12:07:25.189Z,1.25
2019-01-14T12:12:34.123Z,1.72
2019-01-14T12:17:43.054Z,1.59
2019-01-14T12:22:51.979Z,1.63
2019-01-14T12:28:00.958Z,1.47
2019-01-14T12:33:09.898Z,1.54
2019-01-14T12:38:18.922Z,1.58
2019-01-14T12:43:27.864Z,1.51
2019-01-14T12:48:37.062Z,1.06
2019-01-14T12:53:45.981Z,1.48
2019-01-14T12:58:54.974Z,1.29
2019-01-14T13:04:03.923Z,1.32
2019-01-14T13:09:12.971Z,1.16
2019-01-14T13:14:21.908Z,1.59
2019-01-14T13:19:30.868Z,1.37
2019-01-14T13:24:39.806Z,1.76
2019-01-14T13:29:48.796Z,1.39
2019-01-14T13:34:57.719Z,1.53
2019-01-14T13:40:06.786Z,0.96
2019-01-14T13:45:15.726Z,1.60
2019-01-14T13:50:24.714Z,1.51
2019-01-14T13:55:33.658Z,1.39
2019-01-14T14:00:42.675Z,1.33
2019-01-14T14:05:51.590Z,1.47
2019-01-14T14:11:00.582Z,1.07
2019-01-14T14:16:09.598Z,1.68
2019-01-14T14:21:18.782Z,1.71
2019-01-14T14:26:27.792Z,1.36
2019-01-14T14:31:36.722Z,1.24
2019-01-14T14:36:45.658Z,1.77
2019-01-14T14:41:54.578Z,1.74
2019-01-14T14:47:03.591Z,1.26
2019-01-14T14:52:12.690Z,1.70
2019-01-14T14:57:21.675Z,1.53
2019-01-14T15:02:30.606Z,1.52
2019-01-14T15:07:39.667Z,2.23
2019-01-14T15:12:48.610Z,1.58
2019-01-14T15:17:57.577Z,1.61
2019-01-14T15:23:06.521Z,1.72
2019-01-14T15:28:16.494Z,1.76
2019-01-14T15:33:25.466Z,1.92
2019-01-14T15:38:34.411Z,2.18
2019-01-14T15:43:43.375Z,1.47
2019-01-14T15:48:52.332Z,1.68
2019-01-14T15:54:01.847Z,2.09
2019-01-14T15:59:10.794Z,1.74
2019-01-14T16:04:19.816Z,2.58
2019-01-14T16:09:28.766Z,1.81
2019-01-14T16:14:37.767Z,2.07
2019-01-14T16:19:46.694Z,1.85
2019-01-14T16:24:55.682Z,1.67
2019-01-14T16:30:04.638Z,1.84
2019-01-14T16:35:13.683Z,1.79
2019-01-14T16:40:21.155Z,1.43
2019-01-14T16:45:30.110Z,1.49
2019-01-14T16:50:39.107Z,1.84
2019-01-14T16:55:48.025Z,2.28
2019-01-14T17:00:57.045Z,2.63
2019-01-14T17:06:05.990Z,2.99
2019-01-14T17:11:15.037Z,3.57
2019-01-14T17:16:23.966Z,2.63
2019-01-14T17:21:32.982Z,2.63
2019-01-14T17:26:41.932Z,2.76
2019-01-14T17:31:50.910Z,2.84
2019-01-14T17:36:59.887Z,2.96
2019-01-14T17:42:08.831Z,2.78
2019-01-14T17:47:17.759Z,2.50
2019-01-14T17:52:26.685Z,2.65
2019-01-14T17:57:35.700Z,2.88
2019-01-14T18:02:44.626Z,2.98
2019-01-14T18:07:53.610Z,3.33
2019-01-14T18:13:02.546Z,4.53
2019-01-14T18:18:11.567Z,4.18
2019-01-14T18:23:20.495Z,4.37
2019-01-14T18:28:29.502Z,3.54
2019-01-14T18:33:36.958Z,3.33
2019-01-14T18:38:45.981Z,3.44
2019-01-14T18:43:54.930Z,4.51
2019-01-14T18:49:03.946Z,5.62
2019-01-14T18:54:12.922Z,5.51
2019-01-14T18:59:21.898Z,5.71
2019-01-14T19:04:30.846Z,4.35
2019-01-14T19:09:39.834Z,4.87
2019-01-14T19:14:48.750Z,3.55
2019-01-14T19:19:59.975Z,3.11
2019-01-14T19:24:58.902Z,3.25
2019-01-14T19:30:07.944Z,3.41
2019-01-14T19:35:16.871Z,2.84
2019-01-14T19:40:26.006Z,2.97
2019-01-14T19:45:34.952Z,3.29
2019-01-14T19:50:44.022Z,3.81
2019-01-14T19:55:52.966Z,5.35
2019-01-14T20:01:01.975Z,5.49
2019-01-14T20:06:10.926Z,5.70
2019-01-14T20:11:19.982Z,4.54
2019-01-14T20:16:28.914Z,4.30
2019-01-14T20:21:37.951Z,4.59
2019-01-14T20:26:46.882Z,4.33
2019-01-14T20:31:55.885Z,5.95
2019-01-14T20:37:04.818Z,5.74
2019-01-14T20:42:13.799Z,5.37
2019-01-14T20:47:22.742Z,5.44
2019-01-14T20:52:31.730Z,12.34
2019-01-14T20:57:40.650Z,10.31
2019-01-14T21:02:49.674Z,7.77
2019-01-14T21:07:58.746Z,5.56
2019-01-14T21:13:07.686Z,5.94
2019-01-14T21:18:16.774Z,5.26
2019-01-14T21:23:25.731Z,4.67
2019-01-14T21:28:34.687Z,4.88
2019-01-14T21:33:43.607Z,5.88
2019-01-14T21:38:52.578Z,5.63
2019-01-14T21:44:01.510Z,5.83
2019-01-14T21:49:10.508Z,4.57
2019-01-14T21:54:19.494Z,5.78
2019-01-14T21:59:28.573Z,5.29
2019-01-14T22:04:37.518Z,5.36
2019-01-14T22:09:46.494Z,5.96
2019-01-14T22:14:55.425Z,5.99
2019-01-14T22:20:04.374Z,5.22
2019-01-14T22:25:13.315Z,5.61
2019-01-14T22:30:22.292Z,5.17
2019-01-14T22:35:31.232Z,4.80
2019-01-14T22:40:40.210Z,4.54
2019-01-14T22:45:49.138Z,4.18
2019-01-14T22:50:58.182Z,3.61
2019-01-14T22:56:07.111Z,4.36
2019-01-14T23:01:16.117Z,3.99
2019-01-14T23:06:25.116Z,3.88
2019-01-14T23:11:34.102Z,4.03
2019-01-14T23:16:43.026Z,3.67
2019-01-14T23:21:52.014Z,4.23
2019-01-14T23:27:00.938Z,4.51
2019-01-14T23:32:09.978Z,4.32
2019-01-14T23:37:18.886Z,3.95
2019-01-14T23:42:27.830Z,3.78
2019-01-14T23:47:36.779Z,3.77
2019-01-14T23:52:45.838Z,4.35
2019-01-14T23:57:53.280Z,4.11
